Time;durP1;ratioP1;P1;durP2;ratioP2;P2;SDS_P1;SDS_P2;PMS_P1;PMS_P2;Temp;Humidity;BMP_temperature;BMP_pressure;BME280_temperature;BME280_humidity;BME280_pressure;Samples;Min_cycle;Max_cycle;Signal;HPM_P1;HPM_P2
2022/10/06 00:01:13;;;;;;;2.10;1.00;;;17.10;99.90;;;;;;5002970;28;20485;-82
2022/10/06 00:03:41;;;;;;;1.03;0.60;;;17.10;99.90;;;;;;5012970;28;20458;-83
2022/10/06 00:06:10;;;;;;;1.47;0.63;;;17.00;99.90;;;;;;5029417;28;20462;-82
2022/10/06 00:08:39;;;;;;;5.33;0.90;;;17.00;99.90;;;;;;5022865;28;20465;-83
2022/10/06 00:11:07;;;;;;;3.57;0.70;;;16.90;99.90;;;;;;5027079;28;20490;-84
2022/10/06 00:13:36;;;;;;;1.77;0.80;;;16.80;99.90;;;;;;5020436;28;20491;-84
2022/10/06 00:16:11;;;;;;;3.43;0.90;;;16.80;99.90;;;;;;5017167;28;20474;-83
2022/10/06 00:18:38;;;;;;;0.97;0.60;;;16.80;99.90;;;;;;5013469;28;20451;-83
2022/10/06 00:21:04;;;;;;;1.57;0.80;;;16.70;99.90;;;;;;5015046;28;20518;-83
2022/10/06 00:23:31;;;;;;;2.03;0.80;;;16.70;99.90;;;;;;5015776;28;20453;-84
2022/10/06 00:25:58;;;;;;;1.57;1.27;;;16.70;99.90;;;;;;5017259;28;20561;-83
2022/10/06 00:28:24;;;;;;;3.37;0.90;;;16.70;99.90;;;;;;5037068;28;20454;-83
2022/10/06 00:30:52;;;;;;;2.70;1.10;;;16.70;99.90;;;;;;5036166;28;20463;-82
2022/10/06 00:33:19;;;;;;;1.70;0.80;;;16.70;99.90;;;;;;5012099;28;20534;-81
2022/10/06 00:35:46;;;;;;;2.63;0.70;;;16.70;99.90;;;;;;5000621;28;20856;-82
2022/10/06 00:38:15;;;;;;;1.10;0.70;;;16.70;99.90;;;;;;5016847;28;20508;-81
2022/10/06 00:40:44;;;;;;;1.17;0.80;;;16.70;99.90;;;;;;5036370;28;20439;-82
2022/10/06 00:43:47;;;;;;;3.27;0.90;;;16.70;99.90;;;;;;5026400;28;20501;-83
2022/10/06 00:46:24;;;;;;;0.70;0.70;;;16.70;99.90;;;;;;5030371;28;20455;-83
2022/10/06 00:48:59;;;;;;;1.07;0.97;;;16.70;99.90;;;;;;5029437;28;20450;-84
2022/10/06 00:51:27;;;;;;;1.20;0.83;;;16.70;99.90;;;;;;5035534;28;20487;-83
2022/10/06 00:53:54;;;;;;;2.03;0.90;;;16.70;99.90;;;;;;5020113;28;20490;-83
2022/10/06 00:56:20;;;;;;;1.43;1.33;;;16.70;99.90;;;;;;5027352;28;20797;-83
2022/10/06 00:58:49;;;;;;;1.27;0.80;;;16.80;99.90;;;;;;5016856;28;20477;-82
2022/10/06 01:01:16;;;;;;;1.20;0.93;;;16.80;99.90;;;;;;5019005;28;20470;-83
2022/10/06 01:03:49;;;;;;;1.57;0.80;;;16.80;99.90;;;;;;5012663;28;20529;-83
2022/10/06 01:06:15;;;;;;;1.93;1.23;;;16.80;99.90;;;;;;5032447;28;20497;-84
2022/10/06 01:08:42;;;;;;;5.37;1.07;;;16.80;99.90;;;;;;5016722;28;20462;-83
2022/10/06 01:11:12;;;;;;;1.30;1.00;;;16.70;99.90;;;;;;5012872;28;20500;-83
2022/10/06 01:13:43;;;;;;;2.07;0.77;;;16.70;99.90;;;;;;5011133;28;20906;-85
2022/10/06 01:16:17;;;;;;;2.20;0.90;;;16.70;99.90;;;;;;5027777;28;20462;-84
2022/10/06 01:18:46;;;;;;;5.80;1.10;;;16.70;99.90;;;;;;5002028;28;20959;-84
2022/10/06 01:21:34;;;;;;;2.03;0.77;;;16.60;99.90;;;;;;5020398;28;20897;-83
2022/10/06 01:24:04;;;;;;;2.50;0.80;;;16.70;99.90;;;;;;5018697;28;20566;-84
2022/10/06 01:26:34;;;;;;;4.60;0.90;;;16.70;99.90;;;;;;5001106;28;20530;-84
2022/10/06 01:29:00;;;;;;;3.00;1.30;;;16.70;99.90;;;;;;5021070;28;20454;-84
2022/10/06 01:31:28;;;;;;;2.20;0.90;;;16.60;99.90;;;;;;5004752;28;20470;-85
2022/10/06 01:33:55;;;;;;;2.43;1.00;;;16.50;99.90;;;;;;4997326;28;20489;-81
2022/10/06 01:36:22;;;;;;;4.00;1.20;;;16.50;99.90;;;;;;5008272;28;20980;-82
2022/10/06 01:38:48;;;;;;;2.53;1.00;;;16.50;99.90;;;;;;5019686;28;20874;-83
2022/10/06 01:41:15;;;;;;;1.33;0.80;;;16.50;99.90;;;;;;5004537;28;20777;-84
2022/10/06 01:50:10;;;;;;;7.23;1.30;;;16.50;99.90;;;;;;4981049;28;20238;-83
2022/10/06 01:52:37;;;;;;;3.43;1.00;;;16.40;99.90;;;;;;4994862;28;20478;-85
2022/10/06 01:55:08;;;;;;;4.40;1.10;;;16.40;99.90;;;;;;4986508;28;20483;-83
2022/10/06 01:57:42;;;;;;;3.87;0.97;;;16.40;99.90;;;;;;4984375;28;20518;-83
2022/10/06 02:00:18;;;;;;;4.50;1.20;;;16.30;99.90;;;;;;4989988;28;20441;-84
2022/10/06 02:02:49;;;;;;;4.00;1.00;;;16.30;99.90;;;;;;4989047;28;20486;-83
2022/10/06 02:05:19;;;;;;;2.70;1.77;;;16.20;99.90;;;;;;4989146;28;20467;-83
2022/10/06 02:07:49;;;;;;;4.83;1.63;;;16.20;99.90;;;;;;4989505;28;20444;-83
2022/10/06 02:10:18;;;;;;;4.80;1.10;;;16.10;99.90;;;;;;4984905;28;21051;-83
2022/10/06 02:12:52;;;;;;;6.43;3.00;;;16.10;99.90;;;;;;4984988;28;20448;-82
2022/10/06 02:15:20;;;;;;;5.50;1.20;;;16.10;99.90;;;;;;4989760;28;20503;-83
2022/10/06 02:17:47;;;;;;;4.40;1.20;;;16.10;99.90;;;;;;4987571;28;20448;-82
2022/10/06 02:20:21;;;;;;;3.67;1.23;;;16.10;99.90;;;;;;4989991;28;20480;-82
2022/10/06 02:22:52;;;;;;;5.13;1.60;;;16.10;99.90;;;;;;4993338;28;20456;-81
2022/10/06 02:25:19;;;;;;;4.00;1.30;;;16.00;99.90;;;;;;4995983;28;20491;-85
2022/10/06 02:27:47;;;;;;;2.37;0.90;;;16.00;99.90;;;;;;4983165;28;20455;-84
2022/10/06 02:30:16;;;;;;;3.43;1.20;;;16.00;99.90;;;;;;4985206;28;20459;-82
2022/10/06 02:32:45;;;;;;;7.93;1.40;;;16.00;99.90;;;;;;4986582;28;20478;-80
2022/10/06 02:35:12;;;;;;;3.90;1.23;;;16.00;99.90;;;;;;4971642;28;20479;-81
2022/10/06 02:37:40;;;;;;;2.40;1.30;;;16.00;99.90;;;;;;4990412;28;20451;-82
2022/10/06 02:40:08;;;;;;;5.27;1.20;;;15.90;99.90;;;;;;4967913;28;20852;-82
2022/10/06 02:42:36;;;;;;;4.73;2.13;;;15.90;99.90;;;;;;4974666;28;20504;-83
2022/10/06 02:45:07;;;;;;;2.27;1.47;;;15.90;99.90;;;;;;4978991;28;20475;-83
2022/10/06 02:47:35;;;;;;;3.70;1.13;;;15.90;99.90;;;;;;4978722;28;20492;-84
2022/10/06 02:50:05;;;;;;;3.60;1.70;;;15.90;99.90;;;;;;4975581;28;20456;-83
2022/10/06 02:52:36;;;;;;;3.90;1.10;;;15.90;99.90;;;;;;4976832;28;20495;-84
2022/10/06 02:55:05;;;;;;;5.20;1.27;;;15.90;99.90;;;;;;4977625;28;20472;-83
2022/10/06 02:57:31;;;;;;;4.37;1.20;;;15.80;99.90;;;;;;4980407;28;20461;-83
2022/10/06 03:00:01;;;;;;;5.93;1.20;;;15.80;99.90;;;;;;4974004;28;20456;-83
2022/10/06 03:02:31;;;;;;;3.47;1.13;;;15.70;99.90;;;;;;4981346;28;20484;-82
2022/10/06 03:04:59;;;;;;;3.30;1.27;;;15.70;99.90;;;;;;4993009;28;20546;-83
2022/10/06 03:07:25;;;;;;;11.70;2.63;;;15.70;99.90;;;;;;4981598;28;20833;-83
2022/10/06 03:09:55;;;;;;;8.90;1.53;;;15.60;99.90;;;;;;4983241;28;20512;-82
2022/10/06 03:12:21;;;;;;;7.93;2.00;;;15.60;99.90;;;;;;4994851;28;20961;-83
2022/10/06 03:14:48;;;;;;;5.43;1.40;;;15.60;99.90;;;;;;4980778;28;20523;-84
2022/10/06 03:17:15;;;;;;;5.50;1.60;;;15.60;99.90;;;;;;4982745;28;20460;-83
2022/10/06 03:19:42;;;;;;;6.37;1.70;;;15.50;99.90;;;;;;4982469;28;20448;-83
2022/10/06 03:22:09;;;;;;;3.40;1.57;;;15.50;99.90;;;;;;4984238;28;20476;-84
2022/10/06 03:24:36;;;;;;;5.23;1.10;;;15.50;99.90;;;;;;4993926;28;20501;-82
2022/10/06 03:27:03;;;;;;;5.20;1.30;;;15.50;99.90;;;;;;4981608;28;20459;-82
2022/10/06 03:29:30;;;;;;;4.47;1.33;;;15.40;99.90;;;;;;4984366;28;20524;-83
2022/10/06 03:31:57;;;;;;;5.00;1.50;;;15.50;99.90;;;;;;4981803;28;20453;-83
2022/10/06 03:34:24;;;;;;;4.90;1.60;;;15.40;99.90;;;;;;4992240;28;20515;-82
2022/10/06 03:36:51;;;;;;;5.33;1.07;;;15.40;99.90;;;;;;5001271;28;20452;-84
2022/10/06 03:39:18;;;;;;;3.63;1.43;;;15.40;99.90;;;;;;4984460;28;20493;-83
2022/10/06 03:41:44;;;;;;;6.93;1.97;;;15.40;99.90;;;;;;4984766;28;20455;-84
2022/10/06 03:44:11;;;;;;;2.10;1.07;;;15.40;99.90;;;;;;4985110;28;20907;-83
2022/10/06 03:46:37;;;;;;;4.27;1.90;;;15.30;99.90;;;;;;4984820;28;20436;-84
2022/10/06 03:49:04;;;;;;;9.30;2.00;;;15.30;99.90;;;;;;4985437;28;20451;-84
2022/10/06 03:51:38;;;;;;;2.70;1.30;;;15.30;99.90;;;;;;4990643;28;20436;-83
2022/10/06 03:54:20;;;;;;;7.57;2.37;;;15.30;99.90;;;;;;4997410;23;20747;-85
2022/10/06 03:56:57;;;;;;;8.70;1.67;;;15.30;99.90;;;;;;5001142;28;20454;-85
2022/10/06 03:59:33;;;;;;;5.27;1.40;;;15.20;99.90;;;;;;5024224;28;20533;-83
2022/10/06 04:02:00;;;;;;;6.13;1.40;;;15.20;99.90;;;;;;5022291;28;20454;-84
2022/10/06 04:04:27;;;;;;;6.33;1.40;;;15.20;99.90;;;;;;5028462;28;20466;-84
2022/10/06 04:06:54;;;;;;;3.63;1.27;;;15.20;99.90;;;;;;5007217;28;20991;-84
2022/10/06 04:09:20;;;;;;;6.70;1.43;;;15.20;99.90;;;;;;5006237;28;20450;-83
2022/10/06 04:11:47;;;;;;;3.87;1.83;;;15.10;99.90;;;;;;5009654;28;20452;-82
2022/10/06 04:14:15;;;;;;;4.73;1.50;;;15.10;99.90;;;;;;5000597;28;20466;-83
2022/10/06 04:16:47;;;;;;;5.50;1.50;;;15.10;99.90;;;;;;4992916;28;20458;-83
2022/10/06 04:19:15;;;;;;;7.00;1.40;;;15.10;99.90;;;;;;5006366;28;20944;-82
2022/10/06 04:21:44;;;;;;;6.47;1.40;;;15.10;99.90;;;;;;5010431;28;20462;-84
2022/10/06 04:24:11;;;;;;;4.20;1.10;;;15.00;99.60;;;;;;5008413;28;20498;-83
2022/10/06 04:26:43;;;;;;;3.17;1.30;;;15.00;99.60;;;;;;5011754;28;20450;-83
2022/10/06 04:29:10;;;;;;;4.70;1.47;;;15.00;99.60;;;;;;4998743;28;20978;-82
2022/10/06 04:31:38;;;;;;;5.50;1.80;;;15.00;99.60;;;;;;5000435;28;20853;-83
2022/10/06 04:34:06;;;;;;;5.70;2.13;;;15.00;99.40;;;;;;5003668;28;20510;-83
2022/10/06 04:36:39;;;;;;;4.43;1.57;;;15.00;99.40;;;;;;5000354;28;20497;-83
2022/10/06 04:39:09;;;;;;;5.97;1.63;;;15.00;99.40;;;;;;5001662;28;20443;-82
2022/10/06 04:41:37;;;;;;;6.63;1.67;;;15.00;99.40;;;;;;5000477;28;20468;-83
2022/10/06 04:44:05;;;;;;;6.40;1.60;;;15.00;99.40;;;;;;5017636;28;20482;-82
2022/10/06 04:46:33;;;;;;;4.83;1.83;;;15.00;99.40;;;;;;4999283;28;20455;-83
2022/10/06 04:49:10;;;;;;;4.53;1.60;;;15.10;99.40;;;;;;5031056;28;20526;-82
2022/10/06 04:51:43;;;;;;;8.73;3.50;;;15.00;99.10;;;;;;5037068;28;20445;-84
2022/10/06 04:54:09;;;;;;;5.40;1.70;;;15.00;99.30;;;;;;5018570;28;20486;-83
2022/10/06 04:56:36;;;;;;;3.97;1.97;;;15.00;99.40;;;;;;5028702;28;20446;-84
2022/10/06 04:59:03;;;;;;;4.93;1.50;;;15.00;99.50;;;;;;5027881;28;20473;-84
2022/10/06 05:01:32;;;;;;;5.30;2.90;;;15.10;99.20;;;;;;5028504;28;20457;-84
2022/10/06 05:04:00;;;;;;;6.67;2.20;;;15.00;99.00;;;;;;5009070;28;20597;-83
2022/10/06 05:06:33;;;;;;;4.77;1.30;;;14.90;99.10;;;;;;5005163;28;20481;-84
2022/10/06 05:09:14;;;;;;;7.67;1.60;;;14.80;99.40;;;;;;4995157;28;20466;-83
2022/10/06 05:11:41;;;;;;;8.27;2.17;;;14.80;99.60;;;;;;4997300;28;20515;-83
2022/10/06 05:14:08;;;;;;;8.13;1.80;;;14.70;99.80;;;;;;5016876;28;20557;-82
2022/10/06 05:16:36;;;;;;;4.87;2.63;;;14.70;99.90;;;;;;5015593;28;20450;-82
2022/10/06 05:19:03;;;;;;;6.57;1.63;;;14.60;99.90;;;;;;5019277;28;20461;-84
2022/10/06 05:21:31;;;;;;;3.53;1.57;;;14.60;99.90;;;;;;5003524;28;20481;-81
2022/10/06 05:23:58;;;;;;;4.53;1.93;;;14.60;99.90;;;;;;5003351;28;20485;-83
2022/10/06 05:26:27;;;;;;;6.93;2.17;;;14.60;99.90;;;;;;4997613;28;20454;-82
2022/10/06 05:28:54;;;;;;;2.23;1.60;;;14.60;99.90;;;;;;5020715;28;20458;-81
2022/10/06 05:31:28;;;;;;;4.63;2.17;;;14.60;99.90;;;;;;5020163;28;20447;-83
2022/10/06 05:33:56;;;;;;;7.53;1.97;;;14.50;99.90;;;;;;5013834;28;20461;-82
2022/10/06 05:36:25;;;;;;;8.27;2.10;;;14.50;99.90;;;;;;5011652;28;20451;-84
2022/10/06 05:38:52;;;;;;;4.43;1.50;;;14.50;99.90;;;;;;5017882;28;20458;-84
2022/10/06 05:41:22;;;;;;;13.53;6.10;;;14.50;99.90;;;;;;5006903;28;20458;-83
2022/10/06 05:43:50;;;;;;;6.50;2.90;;;14.50;99.80;;;;;;5011235;28;20494;-84
2022/10/06 05:46:19;;;;;;;5.43;2.23;;;14.50;99.80;;;;;;4993678;28;20909;-84
2022/10/06 05:48:48;;;;;;;9.17;2.60;;;14.50;99.70;;;;;;5012594;28;20454;-83
2022/10/06 05:51:16;;;;;;;7.20;2.30;;;14.50;99.70;;;;;;5019227;28;20473;-84
2022/10/06 05:53:43;;;;;;;5.70;2.10;;;14.50;99.70;;;;;;5016363;28;20470;-84
2022/10/06 05:56:17;;;;;;;9.73;2.23;;;14.40;99.80;;;;;;5019371;28;20457;-85
2022/10/06 05:58:46;;;;;;;6.13;1.87;;;14.40;99.80;;;;;;5005445;28;20545;-82
2022/10/06 06:01:21;;;;;;;11.00;3.17;;;14.40;99.80;;;;;;5011980;28;20451;-85
2022/10/06 06:03:49;;;;;;;6.50;2.50;;;14.50;99.70;;;;;;5011284;28;20483;-83
2022/10/06 06:06:23;;;;;;;6.17;1.70;;;14.40;99.60;;;;;;5014976;28;21014;-83
2022/10/06 06:09:16;;;;;;;6.87;2.33;;;14.40;99.50;;;;;;5004636;28;20483;-82
2022/10/06 06:11:45;;;;;;;6.20;2.10;;;14.50;99.60;;;;;;4996484;28;20462;-83
2022/10/06 06:14:15;;;;;;;9.27;3.33;;;14.50;99.50;;;;;;5021475;28;20503;-85
2022/10/06 06:16:43;;;;;;;6.10;2.03;;;14.50;99.30;;;;;;5016113;28;20489;-84
2022/10/06 06:19:11;;;;;;;12.63;2.00;;;14.50;99.20;;;;;;4994969;28;20543;-83
2022/10/06 06:21:38;;;;;;;10.20;2.23;;;14.50;99.10;;;;;;5015346;28;20454;-84
2022/10/06 06:24:05;;;;;;;8.03;2.90;;;14.50;99.00;;;;;;5016100;28;20492;-84
2022/10/06 06:26:35;;;;;;;7.77;2.03;;;14.50;98.70;;;;;;4996028;28;20446;-83
2022/10/06 06:29:03;;;;;;;10.57;2.13;;;14.60;98.80;;;;;;5000331;28;20446;-84
2022/10/06 06:31:42;;;;;;;8.47;3.40;;;14.60;98.70;;;;;;4998502;28;20458;-84
2022/10/06 06:34:10;;;;;;;5.03;1.83;;;14.60;98.40;;;;;;4999032;28;20592;-83
2022/10/06 06:36:39;;;;;;;5.77;2.07;;;14.80;98.30;;;;;;4999650;28;20454;-83
2022/10/06 06:39:09;;;;;;;15.00;2.27;;;15.10;97.50;;;;;;5017978;28;20661;-84
2022/10/06 06:41:39;;;;;;;7.60;2.70;;;15.30;97.30;;;;;;5015870;28;20544;-84
2022/10/06 06:44:16;;;;;;;6.83;1.63;;;15.10;97.20;;;;;;4998756;28;20524;-83
2022/10/06 06:46:46;;;;;;;8.60;2.30;;;15.00;97.20;;;;;;4997473;28;20458;-84
2022/10/06 06:49:13;;;;;;;12.73;4.57;;;15.00;97.50;;;;;;5009447;28;20455;-84
2022/10/06 06:51:48;;;;;;;9.80;2.37;;;15.00;97.20;;;;;;4998034;28;20484;-83
2022/10/06 06:54:15;;;;;;;9.37;2.63;;;15.20;97.20;;;;;;5001157;28;20508;-83
2022/10/06 06:56:44;;;;;;;6.50;1.73;;;15.10;97.20;;;;;;5019895;28;20481;-82
2022/10/06 06:59:12;;;;;;;8.10;2.73;;;15.10;97.20;;;;;;5017758;28;20462;-83
2022/10/06 07:01:43;;;;;;;10.73;4.03;;;15.10;97.10;;;;;;5005577;28;20459;-84
2022/10/06 07:04:11;;;;;;;5.03;2.13;;;15.20;97.00;;;;;;5011597;28;20514;-83
2022/10/06 07:06:39;;;;;;;5.87;1.80;;;15.70;98.00;;;;;;5020191;28;20450;-83
2022/10/06 07:09:06;;;;;;;13.43;2.50;;;18.30;93.90;;;;;;5003103;28;20577;-83
2022/10/06 07:11:35;;;;;;;11.90;2.20;;;20.20;88.90;;;;;;4987787;28;20455;-84
2022/10/06 07:14:05;;;;;;;4.80;1.50;;;20.80;82.70;;;;;;5011145;28;20514;-84
2022/10/06 07:25:07;;;;;;;4.73;2.80;;;23.00;72.10;;;;;;5009688;28;21402;-85
2022/10/06 07:27:41;;;;;;;6.93;2.90;;;24.00;66.70;;;;;;5012307;28;20478;-84
2022/10/06 07:30:19;;;;;;;6.90;2.30;;;24.50;63.60;;;;;;5021749;28;21003;-84
2022/10/06 07:32:49;;;;;;;5.13;1.83;;;25.20;60.20;;;;;;4991385;28;20485;-84
2022/10/06 07:35:18;;;;;;;8.47;2.50;;;24.20;60.00;;;;;;5014940;28;20489;-83
2022/10/06 07:37:46;;;;;;;7.17;1.80;;;23.80;62.00;;;;;;5013910;28;20477;-85
2022/10/06 07:40:13;;;;;;;7.97;2.13;;;23.00;62.60;;;;;;5027786;28;20445;-84
2022/10/06 07:42:52;;;;;;;9.80;2.13;;;22.00;68.00;;;;;;5012098;28;20438;-83
2022/10/06 07:45:45;;;;;;;9.87;2.30;;;21.50;70.30;;;;;;5024473;28;20474;-83
2022/10/06 07:48:17;;;;;;;11.47;2.37;;;20.10;73.00;;;;;;4999223;28;20454;-81
2022/10/06 07:50:49;;;;;;;8.17;2.20;;;18.80;79.00;;;;;;5016150;28;20446;-83
2022/10/06 07:53:17;;;;;;;4.97;2.20;;;18.20;83.80;;;;;;4999301;28;20575;-83
2022/10/06 07:55:46;;;;;;;7.50;2.30;;;17.70;87.10;;;;;;5020614;28;20513;-84
2022/10/06 07:58:14;;;;;;;10.00;1.93;;;17.40;89.20;;;;;;5009346;28;20457;-84
2022/10/06 08:00:42;;;;;;;9.90;3.20;;;17.30;90.50;;;;;;5008971;28;21096;-83
2022/10/06 08:03:10;;;;;;;6.53;2.10;;;17.00;90.60;;;;;;5002456;28;20484;-83
2022/10/06 08:05:38;;;;;;;8.47;3.07;;;16.80;91.20;;;;;;5025947;28;20480;-84
2022/10/06 08:08:05;;;;;;;6.40;3.23;;;16.70;92.10;;;;;;5034343;28;20450;-85
2022/10/06 08:10:31;;;;;;;6.43;2.10;;;16.80;92.40;;;;;;5015192;28;20446;-85
2022/10/06 08:13:00;;;;;;;9.47;2.17;;;16.70;92.00;;;;;;5024063;28;20474;-83
2022/10/06 08:15:26;;;;;;;8.10;2.40;;;16.60;92.50;;;;;;5018928;28;20898;-84
2022/10/06 08:17:53;;;;;;;7.60;2.10;;;16.50;92.90;;;;;;5022841;28;20841;-82
2022/10/06 08:20:19;;;;;;;10.87;2.83;;;16.70;93.30;;;;;;5020679;28;20849;-85
2022/10/06 08:22:46;;;;;;;11.30;2.30;;;17.00;92.50;;;;;;5003125;28;20493;-83
2022/10/06 08:25:13;;;;;;;9.87;1.77;;;16.70;92.60;;;;;;5020042;28;20517;-83
2022/10/06 08:27:42;;;;;;;11.00;3.10;;;16.40;93.30;;;;;;5018894;28;20446;-82
2022/10/06 08:30:10;;;;;;;8.40;2.50;;;16.20;93.70;;;;;;5021102;28;20458;-83
2022/10/06 08:32:37;;;;;;;15.20;3.53;;;16.20;93.90;;;;;;5020695;28;20447;-82
2022/10/06 08:35:04;;;;;;;7.63;2.57;;;16.30;93.90;;;;;;5021516;28;20551;-83
2022/10/06 08:37:31;;;;;;;11.17;2.07;;;16.20;93.80;;;;;;4993186;28;20888;-84
2022/10/06 08:39:58;;;;;;;6.57;1.87;;;16.20;94.10;;;;;;5022217;28;20521;-82
2022/10/06 08:42:35;;;;;;;6.43;2.23;;;16.20;94.00;;;;;;5016864;28;20450;-82
2022/10/06 08:45:10;;;;;;;9.10;2.63;;;16.40;93.90;;;;;;4996721;28;20549;-83
2022/10/06 08:47:42;;;;;;;8.10;1.90;;;16.50;93.70;;;;;;4993591;28;20434;-83
2022/10/06 08:50:11;;;;;;;4.53;1.40;;;16.30;93.60;;;;;;4998635;28;20453;-85
2022/10/06 08:52:57;;;;;;;5.13;1.90;;;16.40;93.70;;;;;;5001528;28;20542;-84
2022/10/06 08:55:31;;;;;;;6.40;1.97;;;16.40;93.50;;;;;;4999422;28;20478;-83
2022/10/06 08:58:29;;;;;;;16.03;2.63;;;16.30;93.50;;;;;;4990858;28;20453;-83
2022/10/06 09:01:26;;;;;;;5.60;2.50;;;16.30;93.70;;;;;;5006858;28;20470;-82
2022/10/06 09:04:00;;;;;;;8.30;2.67;;;16.30;93.70;;;;;;5008512;28;20473;-83
2022/10/06 09:06:50;;;;;;;7.40;2.20;;;16.30;93.60;;;;;;5019078;28;20454;-82
2022/10/06 09:09:50;;;;;;;7.93;1.83;;;16.30;93.60;;;;;;5030840;28;20450;-82
2022/10/06 09:12:43;;;;;;;6.07;1.90;;;16.30;93.50;;;;;;5008426;28;20584;-83
2022/10/06 09:15:13;;;;;;;5.60;2.40;;;16.40;93.00;;;;;;5003208;28;20500;-83
2022/10/06 09:17:49;;;;;;;8.90;1.67;;;16.40;93.20;;;;;;5011941;28;20522;-84
2022/10/06 09:20:31;;;;;;;10.37;3.43;;;16.40;92.70;;;;;;5001774;28;20488;-84
2022/10/06 09:23:00;;;;;;;5.10;2.27;;;16.40;92.50;;;;;;4996875;28;20478;-83
2022/10/06 09:25:29;;;;;;;7.10;1.93;;;16.50;92.50;;;;;;4999489;28;20494;-85
2022/10/06 09:27:59;;;;;;;10.60;2.27;;;16.50;92.50;;;;;;5006565;28;20453;-83
2022/10/06 09:30:26;;;;;;;6.83;2.13;;;16.50;92.40;;;;;;5000478;28;20462;-84
2022/10/06 09:32:58;;;;;;;9.17;3.50;;;16.50;92.30;;;;;;5020646;28;20517;-84
2022/10/06 09:35:28;;;;;;;6.00;2.57;;;16.90;92.00;;;;;;5000622;28;20483;-83
2022/10/06 09:38:04;;;;;;;5.47;2.83;;;17.60;91.00;;;;;;5001475;28;20464;-83
2022/10/06 09:40:38;;;;;;;4.63;1.60;;;18.50;86.90;;;;;;5003314;28;20516;-84
2022/10/06 09:43:24;;;;;;;5.87;1.97;;;19.40;82.50;;;;;;5001872;28;20521;-85
2022/10/06 09:45:54;;;;;;;5.87;2.20;;;20.20;79.10;;;;;;4999449;28;20475;-84
2022/10/06 09:48:25;;;;;;;4.23;1.60;;;21.30;75.00;;;;;;5000322;28;20541;-86
2022/10/06 09:51:26;;;;;;;4.63;1.50;;;23.00;67.30;;;;;;5019158;28;20484;-84
2022/10/06 09:54:23;;;;;;;5.63;1.87;;;23.20;59.70;;;;;;5007945;28;20465;-84
2022/10/06 09:57:30;;;;;;;3.70;1.53;;;22.60;59.70;;;;;;4998666;28;20485;-83
2022/10/06 10:00:43;;;;;;;4.07;2.13;;;22.60;59.00;;;;;;5022532;28;20453;-84
2022/10/06 10:16:18;;;;;;;4.87;1.43;;;21.20;60.50;;;;;;5005565;28;20518;-83
2022/10/06 10:19:42;;;;;;;5.33;1.50;;;20.90;62.00;;;;;;4983031;28;20446;-84
2022/10/06 10:22:45;;;;;;;5.47;1.57;;;21.10;59.90;;;;;;4976908;28;20535;-84
2022/10/06 10:25:47;;;;;;;4.60;1.50;;;20.60;59.70;;;;;;4987503;28;20559;-84
2022/10/06 10:29:00;;;;;;;4.90;2.00;;;20.20;62.00;;;;;;4990116;28;20404;-84
2022/10/06 10:32:10;;;;;;;3.40;1.40;;;19.80;62.90;;;;;;4968742;28;20542;-83
2022/10/06 10:35:00;;;;;;;2.40;1.23;;;19.50;62.90;;;;;;4980229;28;20482;-84
2022/10/06 10:37:47;;;;;;;;;;;;;;;;;;;;;
2022/10/06 10:40:39;;;;;;;5.50;1.47;;;19.40;64.40;;;;;;4995473;28;20542;-82
2022/10/06 10:43:45;;;;;;;2.97;1.00;;;19.20;65.90;;;;;;4984577;28;20957;-84
2022/10/06 10:46:38;;;;;;;8.30;1.70;;;19.00;66.30;;;;;;4977984;28;20538;-83
2022/10/06 10:49:32;;;;;;;4.13;1.50;;;19.60;64.80;;;;;;4972127;28;20496;-84
2022/10/06 10:52:29;;;;;;;6.30;1.57;;;19.50;66.30;;;;;;4999089;28;20468;-84
2022/10/06 10:55:35;;;;;;;3.90;1.53;;;19.50;65.90;;;;;;4992073;28;20478;-83
2022/10/06 10:59:12;;;;;;;3.87;1.70;;;19.10;66.50;;;;;;4998494;28;20450;-83
2022/10/06 11:02:26;;;;;;;3.63;1.40;;;18.80;66.70;;;;;;4962657;28;20438;-83
2022/10/06 11:05:42;;;;;;;3.80;1.70;;;19.30;65.30;;;;;;5001820;28;20491;-84
2022/10/06 11:09:01;;;;;;;3.97;1.30;;;19.60;63.40;;;;;;5004131;28;20429;-84
2022/10/06 11:12:11;;;;;;;4.90;1.20;;;19.10;64.70;;;;;;5008572;28;20527;-85
2022/10/06 11:15:13;;;;;;;4.27;1.17;;;18.90;65.80;;;;;;5022522;28;20500;-82
2022/10/06 11:17:55;;;;;;;4.63;1.50;;;18.70;66.90;;;;;;5026574;28;20505;-83
2022/10/06 11:20:47;;;;;;;3.23;1.60;;;18.60;64.70;;;;;;5025640;28;20431;-82
2022/10/06 11:24:01;;;;;;;4.50;1.33;;;18.70;64.70;;;;;;4980773;28;20434;-85
2022/10/06 11:27:07;;;;;;;4.00;1.47;;;19.10;63.10;;;;;;4992180;28;21079;-84
2022/10/06 11:30:29;;;;;;;1.67;0.97;;;18.70;63.80;;;;;;4952679;28;20535;-83
2022/10/06 11:33:45;;;;;;;3.10;1.30;;;19.00;62.90;;;;;;4979832;28;20440;-84
2022/10/06 11:36:45;;;;;;;5.03;1.40;;;19.00;60.60;;;;;;4948878;28;20452;-84
2022/10/06 11:39:45;;;;;;;4.00;0.80;;;18.80;60.40;;;;;;4977291;28;20483;-85
2022/10/06 11:42:29;;;;;;;3.67;1.03;;;18.70;59.90;;;;;;4977473;28;20452;-84
2022/10/06 11:45:12;;;;;;;4.80;1.10;;;18.70;61.20;;;;;;4976513;28;20547;-83
2022/10/06 11:47:51;;;;;;;3.10;1.30;;;19.30;59.70;;;;;;4976618;28;20452;-84
2022/10/06 11:50:47;;;;;;;8.37;2.33;;;19.20;59.50;;;;;;4971363;28;20436;-84
2022/10/06 11:53:42;;;;;;;7.70;1.50;;;19.10;60.30;;;;;;4962327;28;20994;-83
2022/10/06 11:56:22;;;;;;;4.40;1.47;;;19.10;60.20;;;;;;4962153;28;20460;-84
2022/10/06 11:58:51;;;;;;;3.27;1.70;;;19.10;60.00;;;;;;4976939;28;20462;-83
2022/10/06 12:01:38;;;;;;;6.40;1.77;;;19.10;60.60;;;;;;5002504;28;20450;-83
2022/10/06 12:04:09;;;;;;;4.90;1.53;;;19.30;61.20;;;;;;5019052;28;20466;-85
2022/10/06 12:06:57;;;;;;;3.80;1.77;;;19.50;61.80;;;;;;5023273;28;20446;-84
2022/10/06 12:09:40;;;;;;;5.43;1.10;;;19.90;61.60;;;;;;5007444;28;20461;-85
2022/10/06 12:12:21;;;;;;;6.00;2.03;;;20.00;60.30;;;;;;5024913;28;20438;-84
2022/10/06 12:15:44;;;;;;;3.30;1.67;;;20.20;59.70;;;;;;5031632;28;20479;-85
2022/10/06 12:19:14;;;;;;;5.27;1.60;;;20.60;58.20;;;;;;5024405;28;20430;-84
2022/10/06 12:22:26;;;;;;;3.33;1.10;;;20.80;54.70;;;;;;5027710;28;20438;-85
2022/10/06 12:25:36;;;;;;;4.40;1.40;;;21.30;54.40;;;;;;5010970;28;22610;-84
2022/10/06 12:28:39;;;;;;;4.07;1.30;;;21.60;53.30;;;;;;5016630;28;20466;-85
2022/10/06 12:31:23;;;;;;;2.93;1.20;;;21.70;52.30;;;;;;5018842;28;20474;-87
2022/10/06 12:34:20;;;;;;;2.97;1.23;;;21.80;51.50;;;;;;5020803;28;20438;-85
2022/10/06 12:37:14;;;;;;;5.30;2.17;;;21.70;51.80;;;;;;5018350;28;20485;-84
2022/10/06 12:40:36;;;;;;;3.97;1.10;;;22.20;51.60;;;;;;5026744;23;20453;-83
2022/10/06 12:43:44;;;;;;;3.50;1.30;;;22.40;51.20;;;;;;5003574;28;20450;-83
2022/10/06 12:46:43;;;;;;;4.30;1.50;;;22.40;50.50;;;;;;5000736;28;20972;-86
2022/10/06 12:49:39;;;;;;;2.10;1.37;;;23.70;50.60;;;;;;4994357;28;20615;-85
2022/10/06 12:52:43;;;;;;;5.73;1.87;;;23.90;47.90;;;;;;4979279;28;20467;-85
2022/10/06 12:55:46;;;;;;;3.10;1.60;;;23.40;47.60;;;;;;4972822;28;20474;-82
2022/10/06 13:02:21;;;;;;;6.70;1.30;;;23.30;48.40;;;;;;4978876;28;20799;-83
2022/10/06 13:05:10;;;;;;;3.43;1.10;;;23.30;48.80;;;;;;5006680;28;20577;-86
2022/10/06 13:08:22;;;;;;;2.87;1.10;;;23.30;48.30;;;;;;5000308;28;20463;-83
2022/10/06 13:11:35;;;;;;;4.37;1.50;;;22.90;48.40;;;;;;4992697;28;20435;-85
2022/10/06 13:14:37;;;;;;;2.70;1.40;;;24.20;47.30;;;;;;5000937;28;20463;-85
2022/10/06 13:17:18;;;;;;;5.47;1.20;;;23.80;47.00;;;;;;4999539;28;20451;-84
2022/10/06 13:19:50;;;;;;;3.83;1.23;;;23.60;47.00;;;;;;4993056;28;20447;-83
2022/10/06 13:22:29;;;;;;;1.57;1.00;;;23.30;46.60;;;;;;4982268;28;20458;-83
2022/10/06 13:25:15;;;;;;;1.10;0.70;;;24.50;46.50;;;;;;4983881;28;20486;-85
2022/10/06 13:28:04;;;;;;;4.40;2.70;;;24.80;45.30;;;;;;4981687;28;20454;-82
2022/10/06 13:30:45;;;;;;;5.97;1.67;;;24.00;46.30;;;;;;5004822;28;20443;-84
2022/10/06 13:33:34;;;;;;;4.90;1.50;;;23.60;47.00;;;;;;4995679;28;20543;-84
2022/10/06 13:36:15;;;;;;;4.33;1.37;;;23.50;47.00;;;;;;4982922;28;20494;-85
2022/10/06 13:38:55;;;;;;;2.87;1.27;;;24.10;46.60;;;;;;4997712;28;20455;-84
2022/10/06 13:41:34;;;;;;;2.70;1.20;;;24.00;46.10;;;;;;4982570;28;20561;-83
2022/10/06 13:45:00;;;;;;;3.30;1.80;;;23.60;46.60;;;;;;4996822;28;20534;-82
2022/10/06 13:47:33;;;;;;;3.23;1.37;;;23.20;46.40;;;;;;4943745;29;20482;-82
2022/10/06 13:53:48;;;;;;;2.73;1.40;;;23.10;46.80;;;;;;4947161;29;20887;-84
2022/10/06 13:56:37;;;;;;;2.83;1.07;;;22.80;47.00;;;;;;4936919;29;20545;-82
2022/10/06 13:59:16;;;;;;;3.03;1.20;;;22.90;45.40;;;;;;4974828;28;20462;-85
2022/10/06 14:01:51;;;;;;;4.77;1.87;;;22.30;47.10;;;;;;5004129;28;20482;-86
2022/10/06 14:04:27;;;;;;;1.70;1.23;;;21.90;47.70;;;;;;4981480;28;20479;-86
2022/10/06 14:07:01;;;;;;;5.13;1.30;;;21.80;48.10;;;;;;4999871;28;20447;-84
2022/10/06 14:09:42;;;;;;;7.10;2.50;;;21.40;47.80;;;;;;4978126;28;20508;-85
2022/10/06 14:12:23;;;;;;;4.23;2.00;;;21.20;48.80;;;;;;4979759;28;20883;-83
2022/10/06 14:14:55;;;;;;;4.57;1.90;;;21.00;49.30;;;;;;4991001;28;20477;-83